sensor_id;sensor_type;location;lat;lon;timestamp;P1;P4;P2;P0;N10;N4;N25;N1;N05;TS
82394;SPS30;72031;51.786;4.662;2024-01-16T00:00:15;4.50;4.05;3.12;1.91;15.29;15.24;15.01;13.91;10.25;0.80
82394;SPS30;72031;51.786;4.662;2024-01-16T00:02:41;4.34;3.91;3.03;1.87;14.98;14.93;14.72;13.67;10.13;0.79
82394;SPS30;72031;51.786;4.662;2024-01-16T00:05:07;4.83;4.32;3.26;1.90;15.21;15.15;14.90;13.65;9.79;0.84
82394;SPS30;72031;51.786;4.662;2024-01-16T00:07:33;5.06;4.48;3.29;1.77;14.24;14.17;13.89;12.48;8.52;0.89
82394;SPS30;72031;51.786;4.662;2024-01-16T00:10:00;5.13;4.54;3.31;1.75;14.07;14.00;13.71;12.27;8.28;0.88
82394;SPS30;72031;51.786;4.662;2024-01-16T00:12:25;5.78;5.11;3.73;1.98;15.91;15.83;15.51;13.89;9.38;0.88
82394;SPS30;72031;51.786;4.662;2024-01-16T00:14:51;4.94;4.37;3.20;1.71;13.74;13.68;13.40;12.02;8.16;0.87
82394;SPS30;72031;51.786;4.662;2024-01-16T00:17:17;5.42;4.79;3.50;1.86;14.93;14.86;14.56;13.04;8.81;0.90
82394;SPS30;72031;51.786;4.662;2024-01-16T00:19:42;5.52;4.87;3.52;1.82;14.63;14.56;14.24;12.66;8.39;0.92
82394;SPS30;72031;51.786;4.662;2024-01-16T00:22:08;5.30;4.67;3.38;1.75;14.04;13.97;13.67;12.15;8.05;0.92
82394;SPS30;72031;51.786;4.662;2024-01-16T00:24:33;5.24;4.61;3.31;1.68;13.48;13.41;13.10;11.58;7.55;0.92
82394;SPS30;72031;51.786;4.662;2024-01-16T00:26:59;5.01;4.42;3.22;1.69;13.59;13.52;13.23;11.82;7.92;0.90
82394;SPS30;72031;51.786;4.662;2024-01-16T00:29:24;5.79;5.12;3.75;2.01;16.15;16.07;15.75;14.14;9.62;0.89
82394;SPS30;72031;51.786;4.662;2024-01-16T00:31:50;5.12;4.52;3.29;1.73;13.85;13.78;13.49;12.04;8.06;0.90
82394;SPS30;72031;51.786;4.662;2024-01-16T00:34:15;5.76;5.08;3.69;1.93;15.46;15.38;15.05;13.42;8.95;0.90
82394;SPS30;72031;51.786;4.662;2024-01-16T00:36:41;5.75;5.09;3.72;1.99;15.99;15.91;15.59;13.99;9.50;0.88
82394;SPS30;72031;51.786;4.662;2024-01-16T00:39:07;4.78;4.23;3.12;1.70;13.65;13.58;13.32;12.01;8.26;0.87
82394;SPS30;72031;51.786;4.662;2024-01-16T00:41:33;5.25;4.63;3.37;1.78;14.27;14.20;13.90;12.42;8.34;0.88
82394;SPS30;72031;51.786;4.662;2024-01-16T00:43:58;4.57;4.05;2.97;1.60;12.85;12.79;12.53;11.26;7.69;0.87
82394;SPS30;72031;51.786;4.662;2024-01-16T00:46:30;4.93;4.37;3.21;1.73;13.89;13.83;13.55;12.19;8.33;0.87
82394;SPS30;72031;51.786;4.662;2024-01-16T00:48:55;5.05;4.45;3.24;1.71;13.70;13.63;13.34;11.92;7.99;0.88
82394;SPS30;72031;51.786;4.662;2024-01-16T00:51:21;5.10;4.51;3.29;1.75;14.07;14.00;13.71;12.29;8.31;0.88
82394;SPS30;72031;51.786;4.662;2024-01-16T00:53:47;5.13;4.54;3.34;1.80;14.43;14.36;14.07;12.65;8.63;0.88
82394;SPS30;72031;51.786;4.662;2024-01-16T00:56:12;4.14;3.66;2.69;1.44;11.59;11.53;11.30;10.15;6.92;0.89
82394;SPS30;72031;51.786;4.662;2024-01-16T00:58:38;3.99;3.53;2.60;1.40;11.25;11.20;10.98;9.87;6.75;0.89
82394;SPS30;72031;51.786;4.662;2024-01-16T01:01:04;4.18;3.69;2.69;1.42;11.36;11.31;11.07;9.89;6.64;0.91
82394;SPS30;72031;51.786;4.662;2024-01-16T01:03:30;3.72;3.28;2.38;1.24;9.99;9.94;9.73;8.67;5.78;0.91
82394;SPS30;72031;51.786;4.662;2024-01-16T01:05:55;4.05;3.58;2.63;1.42;11.40;11.34;11.12;10.00;6.83;0.88
82394;SPS30;72031;51.786;4.662;2024-01-16T01:08:21;3.75;3.32;2.44;1.33;10.63;10.58;10.38;9.34;6.40;0.87
82394;SPS30;72031;51.786;4.662;2024-01-16T01:10:46;3.91;3.46;2.55;1.39;11.15;11.09;10.88;9.81;6.74;0.88
82394;SPS30;72031;51.786;4.662;2024-01-16T01:13:12;3.96;3.49;2.52;1.30;10.44;10.39;10.16;9.02;5.96;0.92
82394;SPS30;72031;51.786;4.662;2024-01-16T01:15:38;4.44;3.91;2.81;1.42;11.40;11.34;11.08;9.79;6.37;0.93
82394;SPS30;72031;51.786;4.662;2024-01-16T01:18:04;4.10;3.62;2.64;1.39;11.18;11.13;10.89;9.74;6.55;0.89
82394;SPS30;72031;51.786;4.662;2024-01-16T01:20:31;4.12;3.65;2.68;1.45;11.61;11.55;11.32;10.18;6.96;0.88
82394;SPS30;72031;51.786;4.662;2024-01-16T01:22:57;3.91;3.46;2.54;1.38;11.04;10.98;10.77;9.69;6.63;0.89
82394;SPS30;72031;51.786;4.662;2024-01-16T01:25:23;4.10;3.62;2.64;1.39;11.19;11.13;10.90;9.75;6.56;0.91
82394;SPS30;72031;51.786;4.662;2024-01-16T01:27:51;4.32;3.84;2.85;1.58;12.69;12.63;12.40;11.23;7.83;0.87
82394;SPS30;72031;51.786;4.662;2024-01-16T01:30:17;4.27;3.80;2.85;1.62;13.01;12.96;12.73;11.60;8.21;0.85
82394;SPS30;72031;51.786;4.662;2024-01-16T01:32:42;4.38;3.90;2.92;1.65;13.27;13.21;12.98;11.82;8.34;0.85
82394;SPS30;72031;51.786;4.662;2024-01-16T01:35:09;4.33;3.85;2.86;1.60;12.82;12.77;12.53;11.37;7.95;0.85
82394;SPS30;72031;51.786;4.662;2024-01-16T01:37:36;4.31;3.85;2.89;1.67;13.37;13.32;13.09;11.96;8.53;0.83
82394;SPS30;72031;51.786;4.662;2024-01-16T01:40:02;3.93;3.53;2.72;1.67;13.35;13.31;13.12;12.15;8.96;0.80
82394;SPS30;72031;51.786;4.662;2024-01-16T01:42:28;3.51;3.17;2.46;1.54;12.36;12.31;12.15;11.31;8.44;0.78
82394;SPS30;72031;51.786;4.662;2024-01-16T01:44:54;3.63;3.27;2.52;1.54;12.31;12.27;12.09;11.20;8.25;0.79
82394;SPS30;72031;51.786;4.662;2024-01-16T01:47:20;3.42;3.07;2.34;1.40;11.23;11.19;11.01;10.15;7.39;0.80
82394;SPS30;72031;51.786;4.662;2024-01-16T01:49:49;3.58;3.19;2.41;1.40;11.19;11.14;10.96;10.03;7.17;0.83
82394;SPS30;72031;51.786;4.662;2024-01-16T01:52:16;3.81;3.39;2.54;1.44;11.58;11.53;11.33;10.33;7.30;0.85
82394;SPS30;72031;51.786;4.662;2024-01-16T01:54:43;3.34;2.98;2.24;1.28;10.28;10.24;10.07;9.19;6.53;0.84
82394;SPS30;72031;51.786;4.662;2024-01-16T01:57:10;3.68;3.29;2.49;1.47;11.75;11.70;11.52;10.57;7.62;0.83
82394;SPS30;72031;51.786;4.662;2024-01-16T01:59:36;3.94;3.52;2.66;1.56;12.48;12.43;12.23;11.21;8.06;0.83
82394;SPS30;72031;51.786;4.662;2024-01-16T02:02:02;3.48;3.12;2.37;1.40;11.19;11.14;10.97;10.08;7.28;0.82
82394;SPS30;72031;51.786;4.662;2024-01-16T02:04:37;3.73;3.36;2.61;1.61;12.92;12.88;12.70;11.79;8.75;0.78
82394;SPS30;72031;51.786;4.662;2024-01-16T02:07:05;3.75;3.37;2.59;1.57;12.60;12.55;12.37;11.44;8.40;0.80
82394;SPS30;72031;51.786;4.662;2024-01-16T02:09:32;3.45;3.12;2.42;1.51;12.12;12.08;11.91;11.09;8.26;0.79
82394;SPS30;72031;51.786;4.662;2024-01-16T02:11:58;3.22;2.90;2.26;1.42;11.37;11.33;11.18;10.42;7.78;0.77
82394;SPS30;72031;51.786;4.662;2024-01-16T02:14:23;3.85;3.46;2.65;1.60;12.80;12.75;12.56;11.60;8.48;0.80
82394;SPS30;72031;51.786;4.662;2024-01-16T02:16:49;4.05;3.63;2.76;1.64;13.14;13.09;12.89;11.86;8.60;0.81
82394;SPS30;72031;51.786;4.662;2024-01-16T02:19:15;3.97;3.56;2.71;1.62;12.97;12.92;12.72;11.72;8.52;0.80
82394;SPS30;72031;51.786;4.662;2024-01-16T02:21:47;4.29;3.85;2.96;1.79;14.38;14.33;14.11;13.05;9.58;0.80
82394;SPS30;72031;51.786;4.662;2024-01-16T02:24:14;3.97;3.58;2.76;1.70;13.65;13.60;13.41;12.45;9.21;0.80
82394;SPS30;72031;51.786;4.662;2024-01-16T02:26:44;3.51;3.18;2.49;1.59;12.74;12.70;12.54;11.72;8.82;0.78
82394;SPS30;72031;51.786;4.662;2024-01-16T02:29:10;4.42;4.07;3.35;2.36;18.88;18.84;18.66;17.79;13.99;0.70
82394;SPS30;72031;51.786;4.662;2024-01-16T02:31:36;3.80;3.54;2.99;2.22;17.80;17.76;17.63;16.97;13.63;0.67
82394;SPS30;72031;51.786;4.662;2024-01-16T02:34:02;3.52;3.31;2.89;2.27;18.13;18.10;18.00;17.48;14.29;0.62
82394;SPS30;72031;51.786;4.662;2024-01-16T02:36:30;3.13;2.96;2.59;2.04;16.34;16.32;16.23;15.78;12.93;0.61
82394;SPS30;72031;51.786;4.662;2024-01-16T02:38:57;2.94;2.76;2.39;1.85;14.81;14.79;14.70;14.25;11.60;0.62
82394;SPS30;72031;51.786;4.662;2024-01-16T02:41:22;2.90;2.72;2.35;1.81;14.50;14.48;14.39;13.93;11.33;0.63
82394;SPS30;72031;51.786;4.662;2024-01-16T02:43:48;2.61;2.45;2.11;1.61;12.88;12.86;12.77;12.35;10.02;0.65
82394;SPS30;72031;51.786;4.662;2024-01-16T02:46:13;2.82;2.63;2.22;1.65;13.23;13.21;13.11;12.62;10.14;0.68
82394;SPS30;72031;51.786;4.662;2024-01-16T02:48:40;2.83;2.63;2.23;1.65;13.22;13.19;13.09;12.60;10.11;0.67
82394;SPS30;72031;51.786;4.662;2024-01-16T02:51:07;2.71;2.52;2.13;1.57;12.57;12.55;12.45;11.98;9.59;0.67
82394;SPS30;72031;51.786;4.662;2024-01-16T02:53:34;4.14;3.87;3.32;2.52;20.13;20.10;19.97;19.29;15.60;0.64
82394;SPS30;72031;51.786;4.662;2024-01-16T02:56:00;3.49;3.33;3.00;2.46;19.69;19.67;19.59;19.17;15.92;0.60
82394;SPS30;72031;51.786;4.662;2024-01-16T02:58:26;2.99;2.85;2.57;2.12;16.94;16.92;16.85;16.49;13.70;0.62
82394;SPS30;72031;51.786;4.662;2024-01-16T03:00:53;2.74;2.58;2.25;1.76;14.09;14.07;13.99;13.58;11.10;0.65
82394;SPS30;72031;51.786;4.662;2024-01-16T03:03:19;2.87;2.70;2.34;1.81;14.45;14.42;14.34;13.89;11.31;0.65
82394;SPS30;72031;51.786;4.662;2024-01-16T03:05:45;3.30;3.08;2.63;1.99;15.90;15.88;15.77;15.22;12.29;0.67
82394;SPS30;72031;51.786;4.662;2024-01-16T03:08:11;4.01;3.70;3.07;2.20;17.61;17.57;17.42;16.66;13.19;0.71
82394;SPS30;72031;51.786;4.662;2024-01-16T03:10:37;3.97;3.66;3.04;2.16;17.31;17.28;17.13;16.36;12.93;0.70
82394;SPS30;72031;51.786;4.662;2024-01-16T03:13:03;3.96;3.69;3.12;2.31;18.46;18.42;18.28;17.59;14.10;0.68
82394;SPS30;72031;51.786;4.662;2024-01-16T03:15:28;4.77;4.47;3.86;2.96;23.68;23.64;23.49;22.73;18.46;0.65
82394;SPS30;72031;51.786;4.662;2024-01-16T03:17:56;4.68;4.42;3.90;3.10;24.75;24.71;24.59;23.93;19.66;0.64
82394;SPS30;72031;51.786;4.662;2024-01-16T03:20:25;4.41;4.20;3.78;3.10;24.76;24.73;24.63;24.09;19.99;0.61
82394;SPS30;72031;51.786;4.662;2024-01-16T03:22:51;3.58;3.42;3.08;2.53;20.22;20.20;20.11;19.68;16.35;0.60
82394;SPS30;72031;51.786;4.662;2024-01-16T03:25:17;3.41;3.23;2.86;2.30;18.37;18.35;18.26;17.79;14.67;0.62
82394;SPS30;72031;51.786;4.662;2024-01-16T03:27:42;3.36;3.16;2.75;2.15;17.19;17.16;17.06;16.56;13.53;0.61
82394;SPS30;72031;51.786;4.662;2024-01-16T03:30:09;3.35;3.14;2.70;2.06;16.44;16.41;16.30;15.76;12.77;0.63
82394;SPS30;72031;51.786;4.662;2024-01-16T03:32:35;3.45;3.21;2.70;1.98;15.85;15.82;15.70;15.08;12.05;0.67
82394;SPS30;72031;51.786;4.662;2024-01-16T03:35:10;3.73;3.45;2.87;2.06;16.47;16.44;16.30;15.59;12.35;0.69
82394;SPS30;72031;51.786;4.662;2024-01-16T03:37:37;3.88;3.55;2.89;1.98;15.85;15.81;15.65;14.84;11.55;0.73
82394;SPS30;72031;51.786;4.662;2024-01-16T03:40:03;4.04;3.68;2.93;1.94;15.51;15.47;15.29;14.40;11.02;0.75
82394;SPS30;72031;51.786;4.662;2024-01-16T03:42:29;3.78;3.44;2.73;1.78;14.27;14.23;14.06;13.22;10.06;0.76
82394;SPS30;72031;51.786;4.662;2024-01-16T03:44:54;3.93;3.58;2.86;1.90;15.24;15.20;15.03;14.17;10.88;0.75
82394;SPS30;72031;51.786;4.662;2024-01-16T03:47:22;4.26;3.90;3.17;2.18;17.46;17.42;17.24;16.36;12.75;0.72
82394;SPS30;72031;51.786;4.662;2024-01-16T03:49:48;4.24;3.88;3.16;2.17;17.34;17.30;17.13;16.25;12.65;0.73
82394;SPS30;72031;51.786;4.662;2024-01-16T03:52:14;4.51;4.12;3.32;2.24;17.92;17.87;17.68;16.72;12.92;0.74
82394;SPS30;72031;51.786;4.662;2024-01-16T03:54:39;4.16;3.82;3.11;2.14;17.16;17.11;16.94;16.09;12.55;0.72
82394;SPS30;72031;51.786;4.662;2024-01-16T03:57:05;4.85;4.44;3.59;2.43;19.49;19.44;19.24;18.21;14.11;0.73
82394;SPS30;72031;51.786;4.662;2024-01-16T03:59:30;4.56;4.17;3.36;2.28;18.23;18.18;17.99;17.02;13.17;0.74
82394;SPS30;72031;51.786;4.662;2024-01-16T04:01:56;4.54;4.18;3.45;2.43;19.47;19.43;19.25;18.36;14.46;0.71
82394;SPS30;72031;51.786;4.662;2024-01-16T04:04:21;4.45;4.11;3.42;2.45;19.60;19.56;19.39;18.55;14.70;0.70
82394;SPS30;72031;51.786;4.662;2024-01-16T04:06:49;4.41;4.07;3.38;2.42;19.36;19.32;19.15;18.31;14.50;0.69
82394;SPS30;72031;51.786;4.662;2024-01-16T04:09:15;4.26;3.93;3.25;2.30;18.42;18.38;18.22;17.39;13.72;0.70
82394;SPS30;72031;51.786;4.662;2024-01-16T04:11:40;4.55;4.20;3.49;2.50;19.99;19.94;19.77;18.91;14.97;0.68
82394;SPS30;72031;51.786;4.662;2024-01-16T04:14:06;4.52;4.17;3.45;2.47;19.73;19.68;19.51;18.65;14.74;0.69
82394;SPS30;72031;51.786;4.662;2024-01-16T04:16:31;4.22;3.91;3.27;2.37;19.00;18.96;18.81;18.03;14.36;0.68
82394;SPS30;72031;51.786;4.662;2024-01-16T04:18:57;4.46;4.16;3.55;2.68;21.44;21.41;21.26;20.52;16.56;0.65
82394;SPS30;72031;51.786;4.662;2024-01-16T04:21:24;3.73;3.48;2.97;2.23;17.82;17.79;17.66;17.03;13.73;0.66
82394;SPS30;72031;51.786;4.662;2024-01-16T04:23:50;3.97;3.71;3.17;2.39;19.14;19.11;18.98;18.32;14.79;0.67
82394;SPS30;72031;51.786;4.662;2024-01-16T04:26:16;3.51;3.31;2.90;2.28;18.26;18.23;18.13;17.62;14.44;0.63
82394;SPS30;72031;51.786;4.662;2024-01-16T04:28:41;4.15;3.89;3.35;2.56;20.50;20.46;20.33;19.67;15.96;0.66
82394;SPS30;72031;51.786;4.662;2024-01-16T04:31:08;4.34;4.05;3.44;2.58;20.62;20.58;20.43;19.69;15.85;0.68
82394;SPS30;72031;51.786;4.662;2024-01-16T04:33:33;4.06;3.77;3.17;2.33;18.66;18.63;18.48;17.76;14.20;0.70
82394;SPS30;72031;51.786;4.662;2024-01-16T04:35:59;3.77;3.51;2.96;2.18;17.45;17.42;17.29;16.62;13.31;0.68
82394;SPS30;72031;51.786;4.662;2024-01-16T04:38:25;3.90;3.63;3.07;2.27;18.16;18.13;17.99;17.30;13.88;0.69
82394;SPS30;72031;51.786;4.662;2024-01-16T04:40:51;4.28;3.98;3.36;2.48;19.85;19.82;19.67;18.91;15.15;0.69
82394;SPS30;72031;51.786;4.662;2024-01-16T04:43:16;4.44;4.12;3.47;2.56;20.48;20.45;20.29;19.50;15.61;0.68
82394;SPS30;72031;51.786;4.662;2024-01-16T04:45:42;4.36;4.05;3.42;2.52;20.17;20.13;19.98;19.20;15.38;0.67
82394;SPS30;72031;51.786;4.662;2024-01-16T04:48:11;4.01;3.72;3.14;2.31;18.49;18.46;18.31;17.60;14.09;0.65
82394;SPS30;72031;51.786;4.662;2024-01-16T04:50:36;4.64;4.31;3.63;2.66;21.30;21.26;21.09;20.26;16.20;0.65
82394;SPS30;72031;51.786;4.662;2024-01-16T04:53:02;3.90;3.63;3.09;2.31;18.47;18.44;18.31;17.64;14.20;0.65
82394;SPS30;72031;51.786;4.662;2024-01-16T04:55:28;4.14;3.86;3.29;2.48;19.80;19.76;19.63;18.93;15.26;0.66
82394;SPS30;72031;51.786;4.662;2024-01-16T04:57:55;3.79;3.53;3.00;2.24;17.92;17.88;17.75;17.10;13.75;0.65
82394;SPS30;72031;51.786;4.662;2024-01-16T05:00:21;4.16;3.89;3.34;2.55;20.36;20.32;20.19;19.52;15.81;0.64
82394;SPS30;72031;51.786;4.662;2024-01-16T05:02:46;4.10;3.82;3.23;2.40;19.22;19.19;19.04;18.33;14.72;0.67
82394;SPS30;72031;51.786;4.662;2024-01-16T05:05:12;4.86;4.48;3.69;2.61;20.86;20.81;20.62;19.67;15.49;0.71
82394;SPS30;72031;51.786;4.662;2024-01-16T05:07:38;4.59;4.19;3.38;2.29;18.35;18.30;18.11;17.14;13.26;0.75
82394;SPS30;72031;51.786;4.662;2024-01-16T05:10:04;4.75;4.35;3.52;2.41;19.27;19.22;19.02;18.03;14.00;0.73
82394;SPS30;72031;51.786;4.662;2024-01-16T05:12:31;4.15;3.83;3.19;2.30;18.39;18.35;18.19;17.42;13.82;0.70
82394;SPS30;72031;51.786;4.662;2024-01-16T05:14:57;3.98;3.69;3.09;2.24;17.94;17.90;17.76;17.03;13.56;0.70
82394;SPS30;72031;51.786;4.662;2024-01-16T05:17:24;4.08;3.79;3.20;2.36;18.90;18.86;18.72;18.00;14.42;0.69
82394;SPS30;72031;51.786;4.662;2024-01-16T05:19:49;4.68;4.40;3.82;2.96;23.65;23.61;23.47;22.75;18.54;0.65
82394;SPS30;72031;51.786;4.662;2024-01-16T05:22:15;4.03;3.82;3.39;2.73;21.81;21.78;21.68;21.14;17.43;0.61
82394;SPS30;72031;51.786;4.662;2024-01-16T05:24:40;4.14;3.96;3.59;2.97;23.73;23.71;23.61;23.13;19.26;0.60
82394;SPS30;72031;51.786;4.662;2024-01-16T05:27:07;3.92;3.76;3.42;2.86;22.83;22.81;22.73;22.29;18.60;0.60
82394;SPS30;72031;51.786;4.662;2024-01-16T05:29:34;3.66;3.49;3.14;2.58;20.62;20.60;20.51;20.06;16.65;0.63
82394;SPS30;72031;51.786;4.662;2024-01-16T05:32:03;3.81;3.60;3.15;2.49;19.87;19.85;19.74;19.19;15.72;0.66
82394;SPS30;72031;51.786;4.662;2024-01-16T05:34:29;4.11;3.85;3.32;2.54;20.32;20.29;20.16;19.50;15.82;0.67
82394;SPS30;72031;51.786;4.662;2024-01-16T05:36:55;4.33;4.06;3.49;2.67;21.36;21.32;21.19;20.49;16.62;0.66
82394;SPS30;72031;51.786;4.662;2024-01-16T05:39:20;4.25;3.99;3.45;2.66;21.25;21.21;21.08;20.41;16.60;0.65
82394;SPS30;72031;51.786;4.662;2024-01-16T05:41:46;4.18;3.93;3.43;2.67;21.32;21.29;21.17;20.54;16.76;0.64
82394;SPS30;72031;51.786;4.662;2024-01-16T05:44:12;4.56;4.29;3.73;2.90;23.21;23.18;23.04;22.35;18.24;0.63
82394;SPS30;72031;51.786;4.662;2024-01-16T05:46:37;4.18;3.93;3.42;2.66;21.28;21.25;21.13;20.49;16.72;0.64
82394;SPS30;72031;51.786;4.662;2024-01-16T05:49:06;4.65;4.36;3.76;2.89;23.09;23.05;22.90;22.17;18.00;0.65
82394;SPS30;72031;51.786;4.662;2024-01-16T05:51:31;4.58;4.30;3.72;2.86;22.89;22.86;22.72;22.00;17.89;0.64
82394;SPS30;72031;51.786;4.662;2024-01-16T05:53:58;4.48;4.24;3.75;2.99;23.93;23.90;23.78;23.16;19.06;0.60
82394;SPS30;72031;51.786;4.662;2024-01-16T05:56:23;3.89;3.71;3.35;2.76;22.03;22.01;21.92;21.45;17.83;0.59
82394;SPS30;72031;51.786;4.662;2024-01-16T05:58:49;4.58;4.37;3.94;3.25;25.98;25.95;25.85;25.30;21.03;0.59
82394;SPS30;72031;51.786;4.662;2024-01-16T06:01:14;4.47;4.24;3.78;3.05;24.37;24.34;24.22;23.63;19.52;0.61
82394;SPS30;72031;51.786;4.662;2024-01-16T06:03:40;4.21;3.98;3.50;2.78;22.22;22.19;22.07;21.47;17.64;0.62
82394;SPS30;72031;51.786;4.662;2024-01-16T06:06:06;4.72;4.47;3.96;3.18;25.40;25.37;25.25;24.61;20.28;0.62
82394;SPS30;72031;51.786;4.662;2024-01-16T06:08:32;4.07;3.87;3.45;2.80;22.36;22.33;22.23;21.70;17.94;0.63
82394;SPS30;72031;51.786;4.662;2024-01-16T06:10:58;4.17;3.99;3.61;3.00;23.94;23.92;23.83;23.34;19.44;0.60
82394;SPS30;72031;51.786;4.662;2024-01-16T06:13:24;4.14;3.98;3.66;3.10;24.80;24.77;24.69;24.27;20.34;0.57
82394;SPS30;72031;51.786;4.662;2024-01-16T06:15:49;4.56;4.37;3.99;3.35;26.75;26.72;26.63;26.13;21.83;0.60
82394;SPS30;72031;51.786;4.662;2024-01-16T06:18:15;4.39;4.20;3.81;3.16;25.25;25.22;25.12;24.62;20.51;0.60
82394;SPS30;72031;51.786;4.662;2024-01-16T06:20:40;4.29;4.10;3.72;3.08;24.63;24.61;24.51;24.02;20.00;0.59
82394;SPS30;72031;51.786;4.662;2024-01-16T06:23:06;4.44;4.25;3.87;3.24;25.87;25.85;25.75;25.26;21.08;0.59
82394;SPS30;72031;51.786;4.662;2024-01-16T06:25:31;4.28;4.09;3.71;3.08;24.59;24.56;24.47;23.97;19.97;0.61
82394;SPS30;72031;51.786;4.662;2024-01-16T06:27:57;4.66;4.44;4.01;3.31;26.43;26.40;26.29;25.73;21.39;0.62
82394;SPS30;72031;51.786;4.662;2024-01-16T06:30:22;4.61;4.40;3.96;3.26;26.02;25.99;25.88;25.33;21.03;0.61
82394;SPS30;72031;51.786;4.662;2024-01-16T06:32:48;4.50;4.30;3.89;3.21;25.68;25.65;25.55;25.02;20.82;0.60
82394;SPS30;72031;51.786;4.662;2024-01-16T06:35:15;4.28;4.09;3.71;3.08;24.59;24.56;24.47;23.97;19.97;0.59
82394;SPS30;72031;51.786;4.662;2024-01-16T06:37:41;4.57;4.38;3.97;3.30;26.41;26.38;26.28;25.76;21.47;0.60
82394;SPS30;72031;51.786;4.662;2024-01-16T06:40:07;4.38;4.21;3.86;3.26;26.05;26.03;25.94;25.48;21.33;0.58
82394;SPS30;72031;51.786;4.662;2024-01-16T06:42:34;4.35;4.19;3.87;3.29;26.30;26.28;26.20;25.76;21.62;0.57
82394;SPS30;72031;51.786;4.662;2024-01-16T06:45:01;4.72;4.52;4.10;3.41;27.25;27.23;27.12;26.59;22.16;0.58
82394;SPS30;72031;51.786;4.662;2024-01-16T06:47:28;4.42;4.23;3.85;3.21;25.67;25.64;25.54;25.05;20.90;0.59
82394;SPS30;72031;51.786;4.662;2024-01-16T06:49:53;4.77;4.57;4.15;3.45;27.56;27.53;27.43;26.88;22.41;0.59
82394;SPS30;72031;51.786;4.662;2024-01-16T06:52:19;4.99;4.76;4.28;3.51;28.05;28.01;27.90;27.28;22.64;0.58
82394;SPS30;72031;51.786;4.662;2024-01-16T06:54:44;5.41;5.14;4.58;3.71;29.62;29.58;29.44;28.73;23.74;0.59
82394;SPS30;72031;51.786;4.662;2024-01-16T06:57:10;4.75;4.55;4.12;3.42;27.32;27.29;27.19;26.64;22.19;0.57
82394;SPS30;72031;51.786;4.662;2024-01-16T06:59:40;4.58;4.38;3.97;3.30;26.37;26.34;26.24;25.71;21.43;0.58
82394;SPS30;72031;51.786;4.662;2024-01-16T07:02:06;4.59;4.42;4.07;3.46;27.68;27.65;27.56;27.10;22.74;0.56
82394;SPS30;72031;51.786;4.662;2024-01-16T07:04:33;4.46;4.29;3.95;3.35;26.75;26.73;26.64;26.19;21.96;0.56
82394;SPS30;72031;51.786;4.662;2024-01-16T07:06:58;4.74;4.57;4.20;3.57;28.52;28.49;28.40;27.92;23.42;0.57
82394;SPS30;72031;51.786;4.662;2024-01-16T07:09:28;4.84;4.65;4.27;3.61;28.85;28.82;28.72;28.22;23.64;0.58
82394;SPS30;72031;51.786;4.662;2024-01-16T07:11:56;4.29;4.14;3.83;3.27;26.11;26.09;26.01;25.60;21.50;0.57
82394;SPS30;72031;51.786;4.662;2024-01-16T07:14:22;4.36;4.22;3.93;3.39;27.07;27.05;26.98;26.59;22.40;0.57
82394;SPS30;72031;51.786;4.662;2024-01-16T07:16:49;4.61;4.43;4.06;3.43;27.39;27.36;27.27;26.79;22.43;0.59
82394;SPS30;72031;51.786;4.662;2024-01-16T07:19:15;4.46;4.28;3.91;3.29;26.30;26.28;26.19;25.71;21.50;0.58
82394;SPS30;72031;51.786;4.662;2024-01-16T07:21:40;4.22;4.07;3.74;3.18;25.38;25.36;25.28;24.85;20.84;0.58
82394;SPS30;72031;51.786;4.662;2024-01-16T07:24:06;4.15;4.01;3.71;3.17;25.36;25.34;25.26;24.87;20.90;0.57
82394;SPS30;72031;51.786;4.662;2024-01-16T07:26:31;4.14;4.00;3.71;3.18;25.40;25.38;25.31;24.92;20.96;0.58
82394;SPS30;72031;51.786;4.662;2024-01-16T07:28:57;4.44;4.31;4.05;3.53;28.19;28.17;28.11;27.74;23.44;0.55
82394;SPS30;72031;51.786;4.662;2024-01-16T07:31:23;4.34;4.21;3.96;3.46;27.66;27.64;27.57;27.22;23.02;0.56
82394;SPS30;72031;51.786;4.662;2024-01-16T07:33:49;4.24;4.11;3.84;3.33;26.63;26.61;26.54;26.17;22.08;0.57
82394;SPS30;72031;51.786;4.662;2024-01-16T07:36:15;4.01;3.87;3.58;3.05;24.39;24.37;24.29;23.90;20.07;0.61
82394;SPS30;72031;51.786;4.662;2024-01-16T07:38:41;4.30;4.16;3.86;3.31;26.42;26.40;26.32;25.92;21.80;0.59
82394;SPS30;72031;51.786;4.662;2024-01-16T07:41:07;4.43;4.28;3.98;3.43;27.42;27.40;27.32;26.92;22.67;0.58
82394;SPS30;72031;51.786;4.662;2024-01-16T07:43:32;4.61;4.44;4.09;3.47;27.72;27.70;27.61;27.15;22.77;0.58
82394;SPS30;72031;51.786;4.662;2024-01-16T07:45:58;4.44;4.32;4.05;3.54;28.25;28.24;28.17;27.80;23.50;0.54
82394;SPS30;72031;51.786;4.662;2024-01-16T07:51:10;4.80;4.67;4.42;3.90;31.14;31.12;31.05;30.69;26.01;0.56
82394;SPS30;72031;51.786;4.662;2024-01-16T07:53:36;4.87;4.73;4.44;3.87;30.90;30.88;30.80;30.40;25.68;0.56
82394;SPS30;72031;51.786;4.662;2024-01-16T07:56:01;5.15;5.02;4.75;4.19;33.43;33.41;33.34;32.95;27.93;0.56
82394;SPS30;72031;51.786;4.662;2024-01-16T07:58:28;4.63;4.51;4.26;3.75;30.00;29.98;29.91;29.56;25.05;0.55
82394;SPS30;72031;51.786;4.662;2024-01-16T08:00:54;4.89;4.77;4.54;4.04;32.26;32.25;32.18;31.85;27.06;0.54
82394;SPS30;72031;51.786;4.662;2024-01-16T08:03:20;4.74;4.64;4.43;3.96;31.63;31.61;31.56;31.25;26.58;0.54
82394;SPS30;72031;51.786;4.662;2024-01-16T08:05:45;4.70;4.61;4.44;4.01;32.03;32.01;31.96;31.70;27.04;0.52
82394;SPS30;72031;51.786;4.662;2024-01-16T08:08:10;4.41;4.34;4.21;3.84;30.65;30.64;30.60;30.38;25.98;0.53
82394;SPS30;72031;51.786;4.662;2024-01-16T08:10:37;4.74;4.66;4.49;4.05;32.35;32.33;32.29;32.02;27.31;0.52
82394;SPS30;72031;51.786;4.662;2024-01-16T08:13:03;4.71;4.62;4.42;3.97;31.68;31.66;31.61;31.32;26.67;0.53
82394;SPS30;72031;51.786;4.662;2024-01-16T08:15:29;4.88;4.80;4.63;4.18;33.39;33.38;33.33;33.06;28.20;0.52
82394;SPS30;72031;51.786;4.662;2024-01-16T08:17:55;5.01;4.92;4.75;4.29;34.28;34.26;34.21;33.93;28.96;0.53
82394;SPS30;72031;51.786;4.662;2024-01-16T08:20:20;4.76;4.68;4.53;4.11;32.81;32.79;32.75;32.50;27.76;0.53
82394;SPS30;72031;51.786;4.662;2024-01-16T08:22:47;5.05;4.96;4.79;4.34;34.66;34.64;34.59;34.32;29.30;0.53
82394;SPS30;72031;51.786;4.662;2024-01-16T08:25:15;4.80;4.74;4.60;4.20;33.58;33.57;33.53;33.30;28.49;0.52
82394;SPS30;72031;51.786;4.662;2024-01-16T08:27:41;5.80;5.68;5.44;4.87;38.89;38.87;38.80;38.44;32.71;0.56
82394;SPS30;72031;51.786;4.662;2024-01-16T08:30:07;5.39;5.30;5.10;4.60;36.76;36.74;36.69;36.38;31.03;0.55
82394;SPS30;72031;51.786;4.662;2024-01-16T08:32:33;4.80;4.74;4.61;4.21;33.63;33.62;33.58;33.36;28.54;0.53
82394;SPS30;72031;51.786;4.662;2024-01-16T08:34:58;5.18;5.14;5.05;4.67;37.30;37.29;37.26;37.08;31.83;0.50
82394;SPS30;72031;51.786;4.662;2024-01-16T08:37:24;5.38;5.34;5.26;4.89;39.01;39.00;38.97;38.79;33.33;0.49
82394;SPS30;72031;51.786;4.662;2024-01-16T08:39:50;5.68;5.63;5.53;5.12;40.87;40.86;40.82;40.62;34.87;0.48
82394;SPS30;72031;51.786;4.662;2024-01-16T08:42:16;5.41;5.37;5.30;4.92;39.33;39.31;39.29;39.12;33.62;0.49
82394;SPS30;72031;51.786;4.662;2024-01-16T08:44:42;5.55;5.50;5.39;4.97;39.72;39.71;39.67;39.46;33.85;0.54
82394;SPS30;72031;51.786;4.662;2024-01-16T08:47:08;5.79;5.73;5.61;5.18;41.33;41.32;41.28;41.05;35.21;0.52
82394;SPS30;72031;51.786;4.662;2024-01-16T08:49:34;6.13;6.08;5.97;5.52;44.11;44.10;44.06;43.84;37.64;0.53
82394;SPS30;72031;51.786;4.662;2024-01-16T08:52:00;6.47;6.42;6.33;5.87;46.88;46.87;46.83;46.62;40.05;0.51
82394;SPS30;72031;51.786;4.662;2024-01-16T08:54:27;6.98;6.93;6.82;6.33;50.57;50.56;50.52;50.28;43.20;0.52
82394;SPS30;72031;51.786;4.662;2024-01-16T08:56:53;6.17;6.12;6.02;5.58;44.58;44.57;44.53;44.32;38.07;0.52
82394;SPS30;72031;51.786;4.662;2024-01-16T08:59:18;5.15;5.11;5.01;4.62;36.90;36.89;36.85;36.66;31.45;0.52
82394;SPS30;72031;51.786;4.662;2024-01-16T09:01:44;4.97;4.91;4.78;4.38;34.97;34.95;34.92;34.69;29.71;0.52
82394;SPS30;72031;51.786;4.662;2024-01-16T09:04:10;5.25;5.20;5.10;4.72;37.67;37.66;37.62;37.43;32.12;0.52
82394;SPS30;72031;51.786;4.662;2024-01-16T09:06:35;4.92;4.88;4.80;4.45;35.55;35.54;35.51;35.34;30.35;0.52
82394;SPS30;72031;51.786;4.662;2024-01-16T09:09:01;4.63;4.57;4.46;4.09;32.63;32.61;32.58;32.37;27.72;0.54
82394;SPS30;72031;51.786;4.662;2024-01-16T09:11:29;4.95;4.90;4.79;4.41;35.24;35.23;35.20;35.00;30.00;0.51